Time;durP1;ratioP1;P1;durP2;ratioP2;P2;SDS_P1;SDS_P2;PMS_P1;PMS_P2;Temp;Humidity;BMP_temperature;BMP_pressure;BME280_temperature;BME280_humidity;BME280_pressure;Samples;Min_cycle;Max_cycle;Signal;HPM_P1;HPM_P2
2022/03/19 00:01:03;;;;;;;40.72;24.83;;;;;;;;;;5073123;28;20021;-61
2022/03/19 00:03:29;;;;;;;34.45;20.83;;;;;;;;;;5073669;28;20041;-60
2022/03/19 00:05:54;;;;;;;33.28;18.98;;;;;;;;;;5073914;28;20037;-60
2022/03/19 00:08:20;;;;;;;38.13;19.77;;;;;;;;;;5073580;28;20040;-60
2022/03/19 00:10:45;;;;;;;34.17;18.77;;;;;;;;;;5072448;28;20119;-59
2022/03/19 00:13:12;;;;;;;30.20;17.48;;;;;;;;;;5073350;28;20471;-60
2022/03/19 00:15:38;;;;;;;28.77;16.65;;;;;;;;;;5073325;28;20420;-64
2022/03/19 00:18:04;;;;;;;31.45;17.58;;;;;;;;;;5072868;28;20380;-65
2022/03/19 00:20:30;;;;;;;43.55;21.80;;;;;;;;;;5072840;28;20041;-65
2022/03/19 00:22:55;;;;;;;37.13;22.08;;;;;;;;;;5073427;28;20119;-64
2022/03/19 00:25:21;;;;;;;31.92;19.00;;;;;;;;;;5073418;28;20111;-65
2022/03/19 00:27:47;;;;;;;29.67;17.85;;;;;;;;;;5073187;28;20051;-66
2022/03/19 00:30:12;;;;;;;35.47;18.63;;;;;;;;;;5073404;28;20029;-67
2022/03/19 00:32:38;;;;;;;37.53;19.42;;;;;;;;;;5073072;28;20036;-66
2022/03/19 00:35:04;;;;;;;36.40;20.48;;;;;;;;;;5072263;28;20047;-66
2022/03/19 00:37:31;;;;;;;34.08;20.35;;;;;;;;;;5055168;28;20056;-67
2022/03/19 00:39:56;;;;;;;37.25;20.30;;;;;;;;;;5072590;28;20398;-67
2022/03/19 00:42:22;;;;;;;35.70;19.88;;;;;;;;;;5072988;28;20056;-66
2022/03/19 00:44:48;;;;;;;38.53;19.48;;;;;;;;;;5073117;28;20074;-66
2022/03/19 00:47:14;;;;;;;35.20;20.45;;;;;;;;;;5073001;28;20051;-67
2022/03/19 00:49:39;;;;;;;34.80;19.38;;;;;;;;;;5072902;28;20028;-65
2022/03/19 00:52:05;;;;;;;34.75;19.02;;;;;;;;;;5073017;28;20425;-65
2022/03/19 00:54:30;;;;;;;31.83;18.52;;;;;;;;;;5073074;28;20033;-66
2022/03/19 00:56:55;;;;;;;37.13;19.85;;;;;;;;;;5072515;28;20040;-66
2022/03/19 00:59:21;;;;;;;34.50;20.23;;;;;;;;;;5055027;28;20086;-66
2022/03/19 01:01:48;;;;;;;33.95;19.52;;;;;;;;;;5055038;28;20033;-68
2022/03/19 01:04:14;;;;;;;33.20;18.95;;;;;;;;;;5072406;28;20025;-66
2022/03/19 01:06:39;;;;;;;34.95;19.20;;;;;;;;;;5054395;28;20120;-61
2022/03/19 01:09:05;;;;;;;32.33;18.88;;;;;;;;;;5073008;28;20040;-61
2022/03/19 01:11:31;;;;;;;34.30;18.60;;;;;;;;;;5055069;28;20063;-61
2022/03/19 01:13:56;;;;;;;51.33;23.48;;;;;;;;;;5055024;28;20036;-61
2022/03/19 01:16:23;;;;;;;45.53;22.08;;;;;;;;;;5038286;28;20482;-61
2022/03/19 01:18:49;;;;;;;37.50;19.52;;;;;;;;;;5072908;28;20040;-61
2022/03/19 01:21:15;;;;;;;43.63;21.00;;;;;;;;;;5072821;28;20036;-61
2022/03/19 01:23:41;;;;;;;47.80;23.42;;;;;;;;;;5054647;28;20036;-61
2022/03/19 01:26:08;;;;;;;45.33;21.55;;;;;;;;;;5072855;28;20364;-61
2022/03/19 01:28:34;;;;;;;38.17;19.95;;;;;;;;;;5054525;28;20056;-61
2022/03/19 01:31:00;;;;;;;36.63;18.63;;;;;;;;;;5076435;28;20098;-61
2022/03/19 01:33:26;;;;;;;32.80;17.83;;;;;;;;;;5058281;28;20033;-61
2022/03/19 01:35:51;;;;;;;29.85;18.02;;;;;;;;;;5058218;28;20098;-61
2022/03/19 01:38:17;;;;;;;31.55;17.90;;;;;;;;;;5058754;28;20422;-61
2022/03/19 01:40:42;;;;;;;30.73;17.98;;;;;;;;;;5058447;28;20036;-62
2022/03/19 01:43:08;;;;;;;31.58;17.38;;;;;;;;;;5076148;28;20052;-60
2022/03/19 01:45:33;;;;;;;31.48;17.98;;;;;;;;;;5058410;28;20045;-61
2022/03/19 01:47:59;;;;;;;28.20;17.38;;;;;;;;;;5076244;28;20082;-63
2022/03/19 01:50:25;;;;;;;29.75;17.42;;;;;;;;;;5076023;28;20393;-62
2022/03/19 01:52:51;;;;;;;31.83;18.55;;;;;;;;;;5076025;28;20032;-62
2022/03/19 01:55:20;;;;;;;35.65;19.73;;;;;;;;;;5076130;28;20082;-62
2022/03/19 01:57:47;;;;;;;32.70;18.35;;;;;;;;;;5076226;28;20017;-62
2022/03/19 02:00:18;;;;;;;32.55;18.90;;;;;;;;;;5075940;28;20124;-62
2022/03/19 02:02:44;;;;;;;36.67;19.33;;;;;;;;;;5075884;28;20124;-62
2022/03/19 02:05:14;;;;;;;32.67;18.23;;;;;;;;;;5076049;28;20072;-62
2022/03/19 02:07:40;;;;;;;;;;;;;;;;;;5076074;28;20156;-66
2022/03/19 02:10:05;;;;;;;33.47;18.65;;;;;;;;;;5075742;28;20407;-67
2022/03/19 02:12:31;;;;;;;28.77;17.63;;;;;;;;;;5075760;28;20037;-67
2022/03/19 02:14:57;;;;;;;30.98;16.67;;;;;;;;;;5075601;28;20028;-67
2022/03/19 02:17:26;;;;;;;30.45;17.15;;;;;;;;;;5075506;28;20127;-66
2022/03/19 02:19:55;;;;;;;31.20;19.17;;;;;;;;;;5076022;28;20111;-66
2022/03/19 02:22:29;;;;;;;30.80;17.42;;;;;;;;;;5075694;28;20505;-62
2022/03/19 02:27:39;;;;;;;31.00;17.52;;;;;;;;;;5075551;28;20032;-62
2022/03/19 02:30:06;;;;;;;32.08;18.05;;;;;;;;;;5075389;28;20028;-62
2022/03/19 02:32:34;;;;;;;28.38;17.35;;;;;;;;;;5075466;28;20051;-62
2022/03/19 02:34:59;;;;;;;33.20;19.70;;;;;;;;;;5075012;28;20453;-62
2022/03/19 02:37:25;;;;;;;35.55;19.48;;;;;;;;;;5075254;28;20040;-62
2022/03/19 02:39:51;;;;;;;29.70;18.27;;;;;;;;;;5075009;28;20036;-62
2022/03/19 02:42:18;;;;;;;32.17;19.38;;;;;;;;;;5075209;28;20060;-61
2022/03/19 02:44:43;;;;;;;37.78;20.83;;;;;;;;;;5075094;28;20037;-62
2022/03/19 02:47:09;;;;;;;38.83;21.27;;;;;;;;;;5057163;28;20040;-62
2022/03/19 02:49:34;;;;;;;39.63;21.25;;;;;;;;;;5075085;28;20378;-63
2022/03/19 02:52:00;;;;;;;32.22;20.23;;;;;;;;;;5075156;28;20461;-62
2022/03/19 02:54:27;;;;;;;29.70;19.08;;;;;;;;;;5074889;28;20039;-62
2022/03/19 02:56:53;;;;;;;34.67;20.52;;;;;;;;;;5074557;28;20123;-62
2022/03/19 02:59:20;;;;;;;37.38;20.45;;;;;;;;;;5075339;28;20032;-62
2022/03/19 03:01:47;;;;;;;32.08;18.70;;;;;;;;;;5074976;28;20040;-62
2022/03/19 03:04:13;;;;;;;35.13;19.33;;;;;;;;;;5074992;28;20026;-62
2022/03/19 03:06:41;;;;;;;33.28;19.30;;;;;;;;;;5057053;28;20040;-62
2022/03/19 03:09:08;;;;;;;33.08;19.27;;;;;;;;;;5074722;28;20063;-62
2022/03/19 03:11:34;;;;;;;33.92;19.83;;;;;;;;;;5056870;28;20036;-62
2022/03/19 03:14:00;;;;;;;38.70;20.80;;;;;;;;;;5074163;28;20032;-62
2022/03/19 03:16:26;;;;;;;39.17;21.00;;;;;;;;;;5056543;28;20371;-62
2022/03/19 03:18:54;;;;;;;36.78;21.67;;;;;;;;;;5074423;28;20078;-62
2022/03/19 03:21:19;;;;;;;35.33;19.75;;;;;;;;;;5074260;28;20036;-62
2022/03/19 03:23:45;;;;;;;34.75;20.48;;;;;;;;;;5039802;28;20033;-61
2022/03/19 03:26:11;;;;;;;40.47;20.50;;;;;;;;;;5074325;28;20062;-62
2022/03/19 03:28:36;;;;;;;41.53;21.35;;;;;;;;;;5056276;28;20032;-62
2022/03/19 03:31:02;;;;;;;39.22;21.70;;;;;;;;;;5074032;28;20032;-61
2022/03/19 03:33:27;;;;;;;32.53;19.95;;;;;;;;;;5074424;28;20044;-61
2022/03/19 03:35:53;;;;;;;37.47;20.95;;;;;;;;;;5074072;28;20076;-62
2022/03/19 03:38:19;;;;;;;34.45;19.17;;;;;;;;;;5074412;28;20035;-61
2022/03/19 03:40:44;;;;;;;35.60;19.98;;;;;;;;;;5074269;28;20029;-61
2022/03/19 03:43:10;;;;;;;35.67;20.77;;;;;;;;;;5074104;28;20485;-61
2022/03/19 03:45:35;;;;;;;34.78;19.55;;;;;;;;;;5074122;28;20032;-61
2022/03/19 03:48:01;;;;;;;31.63;18.60;;;;;;;;;;5073926;28;20028;-62
2022/03/19 03:50:27;;;;;;;31.95;18.75;;;;;;;;;;5073578;28;20048;-61
2022/03/19 03:52:53;;;;;;;31.50;19.00;;;;;;;;;;5055600;28;20033;-61
2022/03/19 03:55:18;;;;;;;35.10;19.63;;;;;;;;;;5074019;28;20131;-61
2022/03/19 03:57:44;;;;;;;35.45;19.33;;;;;;;;;;5073665;28;20103;-61
2022/03/19 04:00:10;;;;;;;31.20;18.35;;;;;;;;;;5073575;28;20076;-61
2022/03/19 04:02:38;;;;;;;30.65;18.45;;;;;;;;;;5073737;28;20025;-61
2022/03/19 04:05:04;;;;;;;33.05;19.02;;;;;;;;;;5073761;28;20508;-62
2022/03/19 04:07:30;;;;;;;29.52;18.60;;;;;;;;;;5073550;28;20036;-61
2022/03/19 04:09:56;;;;;;;33.40;19.52;;;;;;;;;;5073407;28;20040;-61
2022/03/19 04:12:22;;;;;;;33.20;19.17;;;;;;;;;;5073417;28;20052;-61
2022/03/19 04:14:48;;;;;;;33.33;18.55;;;;;;;;;;5073308;28;20048;-61
2022/03/19 04:17:14;;;;;;;34.03;18.35;;;;;;;;;;5073519;28;20053;-62
2022/03/19 04:19:40;;;;;;;33.58;19.52;;;;;;;;;;5073467;28;20430;-62
2022/03/19 04:22:05;;;;;;;33.28;19.38;;;;;;;;;;5073528;28;20052;-62
2022/03/19 04:24:32;;;;;;;32.45;19.38;;;;;;;;;;5055438;28;20047;-62
2022/03/19 04:26:57;;;;;;;37.63;20.17;;;;;;;;;;5073485;28;20024;-62
2022/03/19 04:29:23;;;;;;;36.55;20.17;;;;;;;;;;5055509;28;20062;-62
2022/03/19 04:31:49;;;;;;;35.10;19.88;;;;;;;;;;5055466;28;20035;-62
2022/03/19 04:34:15;;;;;;;34.20;20.48;;;;;;;;;;5072979;28;20044;-62
2022/03/19 04:36:41;;;;;;;35.80;18.65;;;;;;;;;;5073444;28;20528;-61
2022/03/19 04:39:07;;;;;;;33.97;20.15;;;;;;;;;;5073220;28;20068;-62
2022/03/19 04:41:34;;;;;;;36.38;21.27;;;;;;;;;;5055518;28;20032;-67
2022/03/19 04:44:00;;;;;;;34.40;20.02;;;;;;;;;;5072956;28;20127;-66
2022/03/19 04:46:25;;;;;;;30.33;19.20;;;;;;;;;;5073649;28;20367;-67
2022/03/19 04:48:52;;;;;;;30.92;19.20;;;;;;;;;;5073013;28;20090;-67
2022/03/19 04:51:19;;;;;;;30.83;19.15;;;;;;;;;;5055191;28;20029;-67
2022/03/19 04:53:50;;;;;;;31.98;18.60;;;;;;;;;;5072923;28;20033;-68
2022/03/19 04:56:19;;;;;;;28.80;18.63;;;;;;;;;;5072933;28;20071;-68
2022/03/19 04:58:45;;;;;;;34.00;18.58;;;;;;;;;;5055180;28;20059;-68
2022/03/19 05:01:12;;;;;;;27.70;17.83;;;;;;;;;;5073244;28;20111;-67
2022/03/19 05:03:38;;;;;;;31.13;18.52;;;;;;;;;;5057107;28;20558;-68
2022/03/19 05:06:03;;;;;;;32.15;19.48;;;;;;;;;;5077004;28;20490;-67
2022/03/19 05:08:29;;;;;;;34.60;22.98;;;;;;;;;;5077067;28;20067;-67
2022/03/19 05:11:12;;;;;;;32.85;22.65;;;;;;;;;;5077054;28;20406;-67
2022/03/19 05:13:38;;;;;;;39.47;23.65;;;;;;;;;;5042412;28;20079;-68
2022/03/19 05:16:04;;;;;;;37.67;22.33;;;;;;;;;;5059098;28;20060;-67
2022/03/19 05:18:29;;;;;;;34.30;22.42;;;;;;;;;;5076634;28;20037;-68
2022/03/19 05:20:56;;;;;;;33.22;22.48;;;;;;;;;;5058685;28;20020;-67
2022/03/19 05:23:22;;;;;;;35.67;23.02;;;;;;;;;;5076676;28;20433;-68
2022/03/19 05:25:50;;;;;;;36.63;24.55;;;;;;;;;;5076492;28;20077;-67
2022/03/19 05:28:16;;;;;;;30.38;20.08;;;;;;;;;;5076379;28;20075;-68
2022/03/19 05:30:42;;;;;;;29.65;18.65;;;;;;;;;;5076122;28;20405;-71
2022/03/19 05:33:08;;;;;;;24.08;14.63;;;;;;;;;;5076203;28;20093;-68
2022/03/19 05:35:33;;;;;;;29.80;17.90;;;;;;;;;;5075563;28;20119;-68
2022/03/19 05:38:00;;;;;;;27.88;18.58;;;;;;;;;;5076110;28;20049;-68
2022/03/19 05:40:27;;;;;;;29.20;18.23;;;;;;;;;;5076202;28;20141;-68
2022/03/19 05:42:52;;;;;;;34.33;19.27;;;;;;;;;;5076342;28;20040;-68
2022/03/19 05:45:20;;;;;;;39.72;23.13;;;;;;;;;;5076091;28;20468;-68
2022/03/19 05:47:45;;;;;;;38.30;23.90;;;;;;;;;;5076246;28;20041;-68
2022/03/19 05:50:11;;;;;;;42.67;30.30;;;;;;;;;;5075911;28;20035;-68
2022/03/19 05:52:37;;;;;;;36.50;23.20;;;;;;;;;;5076258;28;20086;-68
2022/03/19 05:55:02;;;;;;;35.97;22.63;;;;;;;;;;5076159;28;20028;-67
2022/03/19 05:57:28;;;;;;;36.40;23.73;;;;;;;;;;5076258;28;20040;-68
2022/03/19 05:59:56;;;;;;;38.38;24.20;;;;;;;;;;5076187;28;20031;-73
2022/03/19 06:02:23;;;;;;;44.92;29.13;;;;;;;;;;5075946;28;20042;-71
2022/03/19 06:04:48;;;;;;;58.58;31.00;;;;;;;;;;5075726;28;20029;-74
2022/03/19 06:07:14;;;;;;;58.65;30.08;;;;;;;;;;5075705;28;20036;-74
2022/03/19 06:09:40;;;;;;;49.90;28.33;;;;;;;;;;5058092;28;20028;-74
2022/03/19 06:12:06;;;;;;;46.67;28.15;;;;;;;;;;5075737;28;20556;-74
2022/03/19 06:14:31;;;;;;;45.08;27.77;;;;;;;;;;5074953;28;20024;-74
2022/03/19 06:16:56;;;;;;;65.30;46.03;;;;;;;;;;5075349;28;20383;-73
2022/03/19 06:19:22;;;;;;;36.20;23.55;;;;;;;;;;5075481;28;20386;-73
2022/03/19 06:21:48;;;;;;;34.10;22.75;;;;;;;;;;5075629;28;20402;-74
2022/03/19 06:24:14;;;;;;;34.38;23.05;;;;;;;;;;5075453;28;20086;-74
2022/03/19 06:26:39;;;;;;;41.78;23.70;;;;;;;;;;5075438;28;20449;-74
2022/03/19 06:29:05;;;;;;;45.13;28.98;;;;;;;;;;5075340;28;20111;-73
2022/03/19 06:31:31;;;;;;;44.78;27.95;;;;;;;;;;5074941;28;20033;-74
2022/03/19 06:33:56;;;;;;;33.90;20.70;;;;;;;;;;5057131;28;20417;-73
2022/03/19 06:39:06;;;;;;;37.03;25.60;;;;;;;;;;5074990;28;20055;-74
2022/03/19 06:41:33;;;;;;;41.00;26.23;;;;;;;;;;5074583;28;20016;-68
2022/03/19 06:43:59;;;;;;;35.60;22.00;;;;;;;;;;5074339;28;20493;-66
2022/03/19 06:46:24;;;;;;;39.70;25.35;;;;;;;;;;5074626;28;20028;-68
2022/03/19 06:48:50;;;;;;;30.38;20.45;;;;;;;;;;5074514;28;20040;-66
2022/03/19 06:51:19;;;;;;;39.88;29.67;;;;;;;;;;5074501;28;20048;-68
2022/03/19 06:53:45;;;;;;;48.50;27.23;;;;;;;;;;5074404;28;20041;-68
2022/03/19 06:56:10;;;;;;;40.17;23.92;;;;;;;;;;5074611;28;20028;-68
2022/03/19 06:58:36;;;;;;;35.72;23.20;;;;;;;;;;5056668;28;20071;-68
2022/03/19 07:01:03;;;;;;;48.10;29.80;;;;;;;;;;5074421;28;20039;-68
2022/03/19 07:03:28;;;;;;;45.17;27.92;;;;;;;;;;5074392;28;20037;-68
2022/03/19 07:05:54;;;;;;;41.40;25.75;;;;;;;;;;5074417;28;20035;-68
2022/03/19 07:08:19;;;;;;;39.85;22.48;;;;;;;;;;5074366;28;20040;-68
2022/03/19 07:10:45;;;;;;;34.45;20.90;;;;;;;;;;5074275;28;20025;-68
2022/03/19 07:13:10;;;;;;;48.00;24.77;;;;;;;;;;5074179;28;20068;-68
2022/03/19 07:15:35;;;;;;;46.00;29.42;;;;;;;;;;5073810;28;20059;-67
2022/03/19 07:18:01;;;;;;;33.63;21.25;;;;;;;;;;5073933;28;20410;-68
2022/03/19 07:20:27;;;;;;;28.77;17.58;;;;;;;;;;5074106;28;20025;-68
2022/03/19 07:23:00;;;;;;;40.97;25.83;;;;;;;;;;5074005;28;20458;-68
2022/03/19 07:25:27;;;;;;;32.83;21.55;;;;;;;;;;5073970;28;20497;-68
2022/03/19 07:27:53;;;;;;;30.50;17.83;;;;;;;;;;5072812;28;20094;-68
2022/03/19 07:30:19;;;;;;;40.25;26.20;;;;;;;;;;5073662;28;20036;-67
2022/03/19 07:32:45;;;;;;;26.65;16.85;;;;;;;;;;5073802;28;20020;-68
2022/03/19 07:35:13;;;;;;;35.95;21.38;;;;;;;;;;5062619;28;20045;-68
2022/03/19 07:37:40;;;;;;;37.35;23.92;;;;;;;;;;5073770;28;20093;-68
2022/03/19 07:40:06;;;;;;;34.60;23.17;;;;;;;;;;5072562;28;20390;-68
2022/03/19 07:42:32;;;;;;;23.95;17.90;;;;;;;;;;5073644;28;20033;-67
2022/03/19 07:44:57;;;;;;;69.25;59.13;;;;;;;;;;5073618;28;20021;-67
2022/03/19 07:47:22;;;;;;;38.45;27.55;;;;;;;;;;5073634;28;20045;-67
2022/03/19 07:49:48;;;;;;;27.67;19.88;;;;;;;;;;5073549;28;20150;-67
2022/03/19 07:52:13;;;;;;;23.10;18.25;;;;;;;;;;5073782;28;20040;-67
2022/03/19 07:54:39;;;;;;;32.10;23.65;;;;;;;;;;5073668;28;20029;-67
2022/03/19 07:57:05;;;;;;;25.63;17.20;;;;;;;;;;5073769;28;20378;-67
2022/03/19 07:59:31;;;;;;;30.70;20.58;;;;;;;;;;5073916;28;20028;-67
2022/03/19 08:01:56;;;;;;;21.27;12.50;;;;;;;;;;5073728;28;20031;-67
2022/03/19 08:04:22;;;;;;;22.23;12.88;;;;;;;;;;5073544;28;20475;-67
2022/03/19 08:06:49;;;;;;;17.50;12.38;;;;;;;;;;5073766;28;20060;-67
2022/03/19 08:09:15;;;;;;;15.02;9.55;;;;;;;;;;5073734;28;20078;-67
2022/03/19 08:11:40;;;;;;;17.92;10.65;;;;;;;;;;5073704;28;20462;-67
2022/03/19 08:14:06;;;;;;;18.35;11.73;;;;;;;;;;5073374;28;20044;-67
2022/03/19 08:16:32;;;;;;;18.88;12.32;;;;;;;;;;5072674;28;20033;-67
2022/03/19 08:18:57;;;;;;;22.55;15.52;;;;;;;;;;5073603;28;20469;-67
2022/03/19 08:21:23;;;;;;;16.52;11.57;;;;;;;;;;5073616;28;20064;-67
2022/03/19 08:23:48;;;;;;;16.25;12.10;;;;;;;;;;5073361;28;20029;-67
2022/03/19 08:26:14;;;;;;;17.05;12.55;;;;;;;;;;5073351;28;20040;-67
2022/03/19 08:28:39;;;;;;;15.73;11.63;;;;;;;;;;5073254;28;20636;-67
2022/03/19 08:31:05;;;;;;;24.60;16.55;;;;;;;;;;5073345;28;20036;-67
2022/03/19 08:33:30;;;;;;;41.70;26.65;;;;;;;;;;5073202;28;20028;-67
2022/03/19 08:35:56;;;;;;;17.48;10.50;;;;;;;;;;5071816;28;20098;-67
2022/03/19 08:41:06;;;;;;;27.45;17.55;;;;;;;;;;5079999;28;20032;-67
2022/03/19 08:43:31;;;;;;;13.68;9.57;;;;;;;;;;5079862;28;20028;-67
2022/03/19 08:45:57;;;;;;;17.83;12.48;;;;;;;;;;5079951;28;20090;-67
2022/03/19 08:48:22;;;;;;;23.20;9.82;;;;;;;;;;5080102;28;20056;-68
2022/03/19 08:50:48;;;;;;;15.65;9.57;;;;;;;;;;5079931;28;20041;-67
2022/03/19 08:53:14;;;;;;;13.60;10.27;;;;;;;;;;5079952;28;20020;-67
2022/03/19 08:55:40;;;;;;;29.55;20.35;;;;;;;;;;5079945;28;20040;-67
2022/03/19 08:58:05;;;;;;;47.13;33.47;;;;;;;;;;5079693;28;20116;-67
2022/03/19 09:00:31;;;;;;;54.72;34.47;;;;;;;;;;5079691;28;20483;-67
2022/03/19 09:02:56;;;;;;;31.73;21.20;;;;;;;;;;5079912;28;20457;-67
2022/03/19 09:05:22;;;;;;;27.98;20.70;;;;;;;;;;5079604;28;20526;-67
2022/03/19 09:07:48;;;;;;;31.95;19.05;;;;;;;;;;5079755;28;20122;-67
2022/03/19 09:10:13;;;;;;;17.65;12.20;;;;;;;;;;5079645;28;20108;-68
2022/03/19 09:12:39;;;;;;;10.80;7.97;;;;;;;;;;5079583;28;20075;-67
2022/03/19 09:15:06;;;;;;;11.48;7.25;;;;;;;;;;5079313;28;20037;-67
2022/03/19 09:17:31;;;;;;;14.32;9.18;;;;;;;;;;5079268;28;20580;-67
2022/03/19 09:19:57;;;;;;;12.27;7.97;;;;;;;;;;5079387;28;20131;-67
2022/03/19 09:22:22;;;;;;;12.05;8.13;;;;;;;;;;5079558;28;20020;-67
2022/03/19 09:24:48;;;;;;;19.23;10.93;;;;;;;;;;5078299;28;20037;-67
2022/03/19 09:27:14;;;;;;;14.38;9.45;;;;;;;;;;5078171;28;20155;-67
2022/03/19 09:29:39;;;;;;;14.38;9.60;;;;;;;;;;5079430;28;20473;-67
2022/03/19 09:32:05;;;;;;;13.50;10.40;;;;;;;;;;5079439;28;20028;-68
2022/03/19 09:34:31;;;;;;;15.20;10.32;;;;;;;;;;5078880;28;20047;-67
2022/03/19 09:36:56;;;;;;;15.05;9.90;;;;;;;;;;5079401;28;20059;-67
2022/03/19 09:39:22;;;;;;;13.05;10.77;;;;;;;;;;5079386;28;20394;-68
2022/03/19 09:41:47;;;;;;;14.57;10.15;;;;;;;;;;5079416;28;20024;-67
2022/03/19 09:44:13;;;;;;;13.82;9.98;;;;;;;;;;5079308;28;20045;-67
2022/03/19 09:46:38;;;;;;;13.90;9.95;;;;;;;;;;5079325;28;20126;-68
2022/03/19 09:49:04;;;;;;;13.45;9.65;;;;;;;;;;5078674;28;20102;-67
2022/03/19 09:51:31;;;;;;;12.05;9.93;;;;;;;;;;5075242;28;20132;-67
2022/03/19 09:53:57;;;;;;;15.50;10.07;;;;;;;;;;5076027;28;20087;-67
2022/03/19 09:56:22;;;;;;;12.68;9.40;;;;;;;;;;5058339;28;20033;-68
2022/03/19 09:58:48;;;;;;;13.48;9.75;;;;;;;;;;5076086;28;20043;-65
2022/03/19 10:01:16;;;;;;;10.45;8.32;;;;;;;;;;5075987;28;20037;-65
2022/03/19 10:03:43;;;;;;;12.68;10.25;;;;;;;;;;5075824;28;20032;-65
2022/03/19 10:08:57;;;;;;;12.98;8.25;;;;;;;;;;5075932;28;20115;-66
2022/03/19 10:11:23;;;;;;;16.13;10.18;;;;;;;;;;5076185;28;20059;-66
2022/03/19 10:13:49;;;;;;;10.02;8.02;;;;;;;;;;5075770;28;20083;-66
2022/03/19 10:16:23;;;;;;;9.85;8.35;;;;;;;;;;5075886;28;20021;-67
2022/03/19 10:19:00;;;;;;;8.38;6.15;;;;;;;;;;5075873;28;20041;-67
2022/03/19 10:21:26;;;;;;;12.32;7.78;;;;;;;;;;5075716;28;20123;-66
2022/03/19 10:23:52;;;;;;;14.40;8.07;;;;;;;;;;5075588;28;20036;-66
2022/03/19 10:26:23;;;;;;;14.35;10.27;;;;;;;;;;5075583;28;20040;-66
2022/03/19 10:29:01;;;;;;;11.75;8.60;;;;;;;;;;5057348;28;20040;-66
2022/03/19 10:31:50;;;;;;;11.30;9.10;;;;;;;;;;5057534;28;20384;-66
2022/03/19 10:34:15;;;;;;;12.48;10.18;;;;;;;;;;5074540;28;20163;-66
2022/03/19 10:36:42;;;;;;;10.40;8.35;;;;;;;;;;5075399;28;20063;-67
2022/03/19 10:39:11;;;;;;;13.95;9.32;;;;;;;;;;5075169;28;20041;-66
2022/03/19 10:41:36;;;;;;;15.80;10.23;;;;;;;;;;5074850;28;20029;-67
2022/03/19 10:44:14;;;;;;;13.32;9.43;;;;;;;;;;5074983;28;20040;-67
2022/03/19 10:46:46;;;;;;;7.93;6.97;;;;;;;;;;5075073;28;20041;-66
2022/03/19 10:49:12;;;;;;;8.73;6.80;;;;;;;;;;5057270;28;20037;-67
2022/03/19 10:51:40;;;;;;;6.47;5.88;;;;;;;;;;5075080;28;20036;-65
2022/03/19 10:54:06;;;;;;;12.52;6.80;;;;;;;;;;5075044;28;20482;-66
2022/03/19 10:56:33;;;;;;;9.13;5.95;;;;;;;;;;5057101;28;20031;-66
2022/03/19 10:58:59;;;;;;;8.20;6.97;;;;;;;;;;5057371;28;20036;-66
2022/03/19 11:01:26;;;;;;;9.60;6.90;;;;;;;;;;5074779;28;20162;-66
2022/03/19 11:03:52;;;;;;;10.73;7.22;;;;;;;;;;5057163;28;20043;-66
2022/03/19 11:06:19;;;;;;;15.25;8.02;;;;;;;;;;5074078;28;20040;-66
2022/03/19 11:08:46;;;;;;;11.75;7.60;;;;;;;;;;5074702;28;20036;-66
2022/03/19 11:11:27;;;;;;;9.52;7.97;;;;;;;;;;5056516;28;20024;-66
2022/03/19 11:13:57;;;;;;;9.70;8.27;;;;;;;;;;5074219;28;20040;-67
2022/03/19 11:16:25;;;;;;;10.03;8.23;;;;;;;;;;5056531;28;20471;-67
2022/03/19 11:18:52;;;;;;;13.38;8.25;;;;;;;;;;5074675;28;20068;-66
2022/03/19 11:21:19;;;;;;;9.15;7.50;;;;;;;;;;5074676;28;20041;-66
2022/03/19 11:24:23;;;;;;;10.25;7.85;;;;;;;;;;5056440;28;20360;-66
2022/03/19 11:26:59;;;;;;;13.55;8.23;;;;;;;;;;4973713;28;20405;-67
2022/03/19 11:29:27;;;;;;;10.02;8.02;;;;;;;;;;5030801;28;20064;-66
2022/03/19 11:31:59;;;;;;;10.07;7.93;;;;;;;;;;5074117;28;20058;-66
2022/03/19 11:34:24;;;;;;;17.23;7.63;;;;;;;;;;5073620;28;20041;-66
2022/03/19 11:36:57;;;;;;;10.48;7.93;;;;;;;;;;5056433;28;20379;-66
2022/03/19 11:39:23;;;;;;;11.82;7.97;;;;;;;;;;5074210;28;20040;-66
2022/03/19 11:41:49;;;;;;;10.90;8.13;;;;;;;;;;5073823;28;20028;-66
2022/03/19 11:44:16;;;;;;;10.80;8.70;;;;;;;;;;5074095;28;20097;-66
2022/03/19 11:47:00;;;;;;;16.42;10.35;;;;;;;;;;5074342;28;20024;-66
2022/03/19 11:49:44;;;;;;;9.18;7.65;;;;;;;;;;5073897;28;20387;-66
2022/03/19 11:52:10;;;;;;;8.00;7.20;;;;;;;;;;5073660;28;20298;-66
2022/03/19 11:55:04;;;;;;;10.95;7.47;;;;;;;;;;5073722;28;20029;-66
2022/03/19 11:57:45;;;;;;;8.65;6.97;;;;;;;;;;5071398;28;20063;-66
2022/03/19 12:00:12;;;;;;;11.77;7.70;;;;;;;;;;5073213;28;20430;-66
2022/03/19 12:05:27;;;;;;;10.75;8.45;;;;;;;;;;5073302;28;20044;-66
2022/03/19 12:07:54;;;;;;;18.35;12.85;;;;;;;;;;5073523;28;20052;-66
2022/03/19 12:10:27;;;;;;;15.05;8.40;;;;;;;;;;5073604;28;20040;-66
2022/03/19 12:12:57;;;;;;;11.43;8.63;;;;;;;;;;5072958;28;20040;-66
2022/03/19 12:15:32;;;;;;;17.77;15.45;;;;;;;;;;5073262;28;20032;-66
2022/03/19 12:18:16;;;;;;;12.52;11.18;;;;;;;;;;5073450;28;20105;-66
2022/03/19 12:20:44;;;;;;;11.07;8.38;;;;;;;;;;5073391;28;20028;-67
2022/03/19 12:23:13;;;;;;;27.65;24.65;;;;;;;;;;5073461;28;20478;-66
2022/03/19 12:25:51;;;;;;;11.32;8.85;;;;;;;;;;5073353;28;20052;-66
2022/03/19 12:28:18;;;;;;;19.85;14.65;;;;;;;;;;5073240;28;20037;-66
2022/03/19 12:30:44;;;;;;;13.65;9.23;;;;;;;;;;5055386;28;20497;-66
2022/03/19 12:33:10;;;;;;;7.25;6.45;;;;;;;;;;5073303;28;20049;-66
2022/03/19 12:35:40;;;;;;;6.72;6.07;;;;;;;;;;5073009;28;20044;-66
2022/03/19 12:38:05;;;;;;;12.85;9.43;;;;;;;;;;5072910;28;20490;-66
2022/03/19 12:41:23;;;;;;;11.05;9.15;;;;;;;;;;5073401;28;20075;-67
2022/03/19 12:43:17;;;;;;;16.77;8.88;;;;;;;;;;5073317;28;20375;-66
2022/03/19 12:45:46;;;;;;;9.80;7.22;;;;;;;;;;5073140;28;20040;-66
2022/03/19 12:48:13;;;;;;;11.82;8.90;;;;;;;;;;5073202;28;20041;-66
2022/03/19 12:50:46;;;;;;;10.00;7.60;;;;;;;;;;5073321;28;20039;-67
2022/03/19 12:53:12;;;;;;;9.55;7.72;;;;;;;;;;5073385;28;20037;-67
2022/03/19 12:55:37;;;;;;;12.60;7.43;;;;;;;;;;5054874;28;20051;-66
2022/03/19 12:58:04;;;;;;;11.73;7.35;;;;;;;;;;5073037;28;20123;-67
2022/03/19 13:00:30;;;;;;;11.98;8.43;;;;;;;;;;5055124;28;20056;-68
2022/03/19 13:02:56;;;;;;;9.23;8.30;;;;;;;;;;5055149;28;20043;-67
2022/03/19 13:05:22;;;;;;;11.60;8.25;;;;;;;;;;5055460;28;20028;-69
2022/03/19 13:08:05;;;;;;;11.63;8.13;;;;;;;;;;5073082;28;20041;-69
2022/03/19 13:10:40;;;;;;;31.55;22.17;;;;;;;;;;5055207;28;20044;-69
2022/03/19 13:13:06;;;;;;;14.38;8.60;;;;;;;;;;5072808;28;20040;-69
2022/03/19 13:15:32;;;;;;;13.88;9.13;;;;;;;;;;5072593;28;20033;-68
2022/03/19 13:17:57;;;;;;;25.02;16.58;;;;;;;;;;5072964;28;20094;-69
2022/03/19 13:20:23;;;;;;;48.88;29.17;;;;;;;;;;5054992;28;20103;-70
2022/03/19 13:22:49;;;;;;;48.13;30.08;;;;;;;;;;5054850;28;20041;-70
2022/03/19 13:25:14;;;;;;;15.82;11.57;;;;;;;;;;5055781;28;20078;-70
2022/03/19 13:27:40;;;;;;;15.60;9.15;;;;;;;;;;5076471;28;20044;-70
2022/03/19 13:30:11;;;;;;;21.75;15.63;;;;;;;;;;5076174;28;20021;-70
2022/03/19 13:32:37;;;;;;;20.35;14.68;;;;;;;;;;5076504;28;20044;-70
2022/03/19 13:35:03;;;;;;;27.45;22.67;;;;;;;;;;5063966;28;20048;-62
2022/03/19 13:37:37;;;;;;;22.45;9.40;;;;;;;;;;5076250;28;20032;-62
2022/03/19 13:40:04;;;;;;;14.05;8.20;;;;;;;;;;5075917;28;20055;-62
2022/03/19 13:42:31;;;;;;;26.70;18.52;;;;;;;;;;5075793;28;20024;-62
2022/03/19 13:45:03;;;;;;;15.30;12.23;;;;;;;;;;5075171;28;20037;-62
2022/03/19 13:47:32;;;;;;;56.50;42.15;;;;;;;;;;5076126;28;20037;-62
2022/03/19 13:49:59;;;;;;;170.18;125.05;;;;;;;;;;5075791;28;20056;-62
2022/03/19 13:52:29;;;;;;;105.25;63.47;;;;;;;;;;5076117;28;20032;-62
2022/03/19 13:54:57;;;;;;;22.05;14.52;;;;;;;;;;5075446;28;20186;-62
2022/03/19 13:57:22;;;;;;;10.43;7.95;;;;;;;;;;5074942;28;20058;-62
2022/03/19 13:59:48;;;;;;;13.02;11.52;;;;;;;;;;5075619;28;20040;-62
2022/03/19 14:02:13;;;;;;;36.08;22.88;;;;;;;;;;5075748;28;20115;-61
2022/03/19 14:04:39;;;;;;;33.17;18.08;;;;;;;;;;5075640;28;20121;-62
2022/03/19 14:07:05;;;;;;;52.97;36.95;;;;;;;;;;5075525;28;20032;-62
2022/03/19 14:09:31;;;;;;;14.05;10.15;;;;;;;;;;5073963;28;20040;-62
2022/03/19 14:11:59;;;;;;;20.92;17.80;;;;;;;;;;5075338;28;20489;-62
2022/03/19 14:14:24;;;;;;;25.50;20.25;;;;;;;;;;5075268;28;20037;-62
2022/03/19 14:16:53;;;;;;;43.38;35.28;;;;;;;;;;5075324;28;20074;-62
2022/03/19 14:19:19;;;;;;;124.63;62.70;;;;;;;;;;5075232;28;20032;-62
2022/03/19 14:21:44;;;;;;;16.90;12.02;;;;;;;;;;5074243;28;20078;-62
2022/03/19 14:24:09;;;;;;;17.27;11.77;;;;;;;;;;5074369;28;20040;-62
2022/03/19 14:26:35;;;;;;;119.68;49.65;;;;;;;;;;5073807;28;20059;-62
2022/03/19 14:29:03;;;;;;;14.50;10.15;;;;;;;;;;5074936;28;20056;-62
2022/03/19 14:31:28;;;;;;;72.65;35.35;;;;;;;;;;5075024;28;20091;-62
2022/03/19 14:33:54;;;;;;;85.45;41.45;;;;;;;;;;5074790;28;20044;-62